I2476 LMML-LICG
Flight info
| Callsign | I2476 |
|---|---|
| Flight time | N/A |
| Altitude | 10000 |
| Route | ARBUS |
| Aircraft | A320/M-S/7123 |
Departure
| Time | N/A |
|---|---|
| Airport | Malta International Airport (LMML) |
Arrival
| Time | 2026-04-23 17:08 |
|---|---|
| Airport | Pantelleria Airport (LICG) |
| Time | Latitude | Longitude | Altitude | Speed | Heading |
|---|---|---|---|---|---|
| 2026-04-23 16:19 | 35.84817 | 14.49511 | 0 ft | 0 kts | 1° |
| 2026-04-23 16:20 | 35.84802 | 14.49511 | 0 ft | 3 kts | 1° |
| 2026-04-23 16:21 | 35.84784 | 14.49510 | 0 ft | 3 kts | 1° |
| 2026-04-23 16:21 | 35.84766 | 14.49510 | 0 ft | 3 kts | 1° |
| 2026-04-23 16:21 | 35.84748 | 14.49513 | 0 ft | 3 kts | 333° |
| 2026-04-23 16:21 | 35.84745 | 14.49515 | 0 ft | 0 kts | 322° |
| 2026-04-23 16:22 | 35.84767 | 14.49490 | 0 ft | 12 kts | 315° |
| 2026-04-23 16:22 | 35.84839 | 14.49379 | 0 ft | 20 kts | 296° |
| 2026-04-23 16:23 | 35.84889 | 14.49254 | 0 ft | 14 kts | 296° |
| 2026-04-23 16:23 | 35.84919 | 14.49177 | 0 ft | 7 kts | 293° |
| 2026-04-23 16:23 | 35.84937 | 14.49127 | 0 ft | 7 kts | 293° |
| 2026-04-23 16:23 | 35.84979 | 14.49045 | 0 ft | 13 kts | 306° |
| 2026-04-23 16:24 | 35.85017 | 14.48978 | 0 ft | 7 kts | 306° |
| 2026-04-23 16:24 | 35.85037 | 14.48937 | 0 ft | 8 kts | 288° |
| 2026-04-23 16:24 | 35.85058 | 14.48855 | 0 ft | 15 kts | 288° |
| 2026-04-23 16:24 | 35.85048 | 14.48743 | 0 ft | 19 kts | 231° |
| 2026-04-23 16:25 | 35.84944 | 14.48785 | 0 ft | 35 kts | 133° |
| 2026-04-23 16:25 | 35.84727 | 14.49052 | 0 ft | 81 kts | 135° |
| 2026-04-23 16:25 | 35.84324 | 14.49543 | 0 ft | 128 kts | 137° |
| 2026-04-23 16:25 | 35.83708 | 14.50247 | 0 ft | 167 kts | 142° |
| 2026-04-23 16:26 | 35.82888 | 14.50968 | 0 ft | 179 kts | 156° |
| 2026-04-23 16:26 | 35.81928 | 14.52013 | 0 ft | 225 kts | 122° |
| 2026-04-23 16:26 | 35.81571 | 14.53529 | 0 ft | 230 kts | 71° |
| 2026-04-23 16:26 | 35.82210 | 14.54949 | 0 ft | 220 kts | 31° |
| 2026-04-23 16:27 | 35.83305 | 14.55696 | 0 ft | 205 kts | 2° |
| 2026-04-23 16:27 | 35.84301 | 14.55554 | 0 ft | 194 kts | 317° |
| 2026-04-23 16:27 | 35.84952 | 14.54484 | 0 ft | 178 kts | 278° |
| 2026-04-23 16:27 | 35.85088 | 14.53345 | 0 ft | 176 kts | 277° |
| 2026-04-23 16:28 | 35.85242 | 14.52095 | 0 ft | 179 kts | 278° |
| 2026-04-23 16:28 | 35.85435 | 14.50745 | 0 ft | 181 kts | 279° |
| 2026-04-23 16:28 | 35.85633 | 14.49400 | 0 ft | 183 kts | 279° |
| 2026-04-23 16:28 | 35.85806 | 14.48395 | 0 ft | 185 kts | 282° |
| 2026-04-23 16:29 | 35.86071 | 14.47191 | 0 ft | 188 kts | 285° |
| 2026-04-23 16:29 | 35.86439 | 14.45869 | 0 ft | 190 kts | 289° |
| 2026-04-23 16:29 | 35.86947 | 14.44364 | 0 ft | 194 kts | 291° |
| 2026-04-23 16:29 | 35.87521 | 14.42856 | 0 ft | 197 kts | 293° |
| 2026-04-23 16:30 | 35.88112 | 14.41404 | 0 ft | 199 kts | 294° |
| 2026-04-23 16:30 | 35.88747 | 14.39918 | 0 ft | 202 kts | 295° |
| 2026-04-23 16:30 | 35.89402 | 14.38425 | 0 ft | 211 kts | 295° |
| 2026-04-23 16:30 | 35.90112 | 14.36826 | 0 ft | 228 kts | 296° |
| 2026-04-23 16:31 | 35.90869 | 14.35136 | 0 ft | 242 kts | 296° |
| 2026-04-23 16:31 | 35.91678 | 14.33337 | 0 ft | 263 kts | 296° |
| 2026-04-23 16:31 | 35.92581 | 14.31332 | 0 ft | 287 kts | 297° |
| 2026-04-23 16:31 | 35.93535 | 14.29214 | 0 ft | 301 kts | 297° |
| 2026-04-23 16:32 | 35.94576 | 14.26902 | 0 ft | 328 kts | 297° |
| 2026-04-23 16:32 | 35.95631 | 14.24566 | 0 ft | 326 kts | 297° |
| 2026-04-23 16:32 | 35.96717 | 14.22166 | 0 ft | 320 kts | 297° |
| 2026-04-23 16:32 | 35.97773 | 14.19833 | 0 ft | 316 kts | 297° |
| 2026-04-23 16:33 | 35.98805 | 14.17546 | 0 ft | 312 kts | 297° |
| 2026-04-23 16:33 | 35.99838 | 14.15253 | 0 ft | 310 kts | 297° |
| 2026-04-23 16:33 | 36.00843 | 14.13016 | 0 ft | 311 kts | 297° |
| 2026-04-23 16:33 | 36.01848 | 14.10773 | 0 ft | 311 kts | 297° |
| 2026-04-23 16:34 | 36.02866 | 14.08496 | 0 ft | 311 kts | 297° |
| 2026-04-23 16:34 | 36.03898 | 14.06183 | 0 ft | 310 kts | 297° |
| 2026-04-23 16:34 | 36.04915 | 14.03900 | 0 ft | 311 kts | 297° |
| 2026-04-23 16:34 | 36.05952 | 14.01572 | 0 ft | 311 kts | 297° |
| 2026-04-23 16:35 | 36.06965 | 13.99298 | 0 ft | 311 kts | 296° |
| 2026-04-23 16:35 | 36.07999 | 13.96973 | 0 ft | 310 kts | 296° |
| 2026-04-23 16:35 | 36.09027 | 13.94658 | 0 ft | 311 kts | 296° |
| 2026-04-23 16:35 | 36.10002 | 13.92463 | 0 ft | 311 kts | 296° |
| 2026-04-23 16:36 | 36.11013 | 13.90182 | 0 ft | 310 kts | 296° |
| 2026-04-23 16:36 | 36.12030 | 13.87889 | 0 ft | 311 kts | 296° |
| 2026-04-23 16:36 | 36.13032 | 13.85628 | 0 ft | 307 kts | 296° |
| 2026-04-23 16:36 | 36.13975 | 13.83495 | 0 ft | 293 kts | 296° |
| 2026-04-23 16:37 | 36.14967 | 13.81230 | 0 ft | 329 kts | 296° |
| 2026-04-23 16:37 | 36.16005 | 13.78869 | 0 ft | 316 kts | 297° |
| 2026-04-23 16:37 | 36.17014 | 13.76600 | 0 ft | 306 kts | 297° |
| 2026-04-23 16:37 | 36.18025 | 13.74320 | 0 ft | 309 kts | 297° |
| 2026-04-23 16:38 | 36.19056 | 13.71989 | 0 ft | 309 kts | 296° |
| 2026-04-23 16:38 | 36.20062 | 13.69715 | 0 ft | 308 kts | 296° |
| 2026-04-23 16:38 | 36.21069 | 13.67434 | 0 ft | 309 kts | 296° |
| 2026-04-23 16:38 | 36.22053 | 13.65203 | 0 ft | 309 kts | 296° |
| 2026-04-23 16:39 | 36.23045 | 13.62951 | 0 ft | 308 kts | 296° |
| 2026-04-23 16:39 | 36.24243 | 13.60801 | 0 ft | 313 kts | 316° |
| 2026-04-23 16:39 | 36.26007 | 13.59348 | 0 ft | 301 kts | 321° |
| 2026-04-23 16:39 | 36.27550 | 13.57660 | 0 ft | 298 kts | 309° |
| 2026-04-23 16:40 | 36.28466 | 13.56381 | 0 ft | 318 kts | 308° |
| 2026-04-23 16:40 | 36.30339 | 13.53721 | 0 ft | 322 kts | 308° |
| 2026-04-23 16:40 | 36.31785 | 13.51676 | 0 ft | 325 kts | 308° |
| 2026-04-23 16:40 | 36.33253 | 13.49597 | 0 ft | 334 kts | 308° |
| 2026-04-23 16:41 | 36.34747 | 13.47472 | 0 ft | 346 kts | 309° |
| 2026-04-23 16:41 | 36.36442 | 13.45435 | 0 ft | 326 kts | 308° |
| 2026-04-23 16:41 | 36.37276 | 13.44009 | 0 ft | 308 kts | 301° |
| 2026-04-23 16:41 | 36.38331 | 13.41880 | 0 ft | 298 kts | 298° |
| 2026-04-23 16:42 | 36.39315 | 13.39784 | 0 ft | 293 kts | 297° |
| 2026-04-23 16:42 | 36.40288 | 13.37668 | 0 ft | 294 kts | 297° |
| 2026-04-23 16:42 | 36.41283 | 13.35484 | 0 ft | 298 kts | 297° |
| 2026-04-23 16:42 | 36.42272 | 13.33298 | 0 ft | 301 kts | 297° |
| 2026-04-23 16:43 | 36.43271 | 13.31078 | 0 ft | 301 kts | 297° |
| 2026-04-23 16:43 | 36.44265 | 13.28858 | 0 ft | 309 kts | 297° |
| 2026-04-23 16:43 | 36.45272 | 13.26610 | 0 ft | 308 kts | 297° |
| 2026-04-23 16:43 | 36.46278 | 13.24364 | 0 ft | 308 kts | 297° |
| 2026-04-23 16:44 | 36.47311 | 13.22052 | 0 ft | 308 kts | 296° |
| 2026-04-23 16:44 | 36.48020 | 13.19630 | 0 ft | 305 kts | 277° |
| 2026-04-23 16:44 | 36.48181 | 13.17014 | 0 ft | 303 kts | 272° |
| 2026-04-23 16:44 | 36.48265 | 13.14432 | 0 ft | 301 kts | 272° |
| 2026-04-23 16:45 | 36.48350 | 13.11930 | 0 ft | 298 kts | 272° |
| 2026-04-23 16:45 | 36.48461 | 13.09395 | 0 ft | 293 kts | 273° |
| 2026-04-23 16:45 | 36.48597 | 13.06961 | 0 ft | 291 kts | 274° |
| 2026-04-23 16:45 | 36.48763 | 13.04546 | 0 ft | 287 kts | 275° |
| 2026-04-23 16:46 | 36.48959 | 13.02106 | 0 ft | 284 kts | 275° |
| 2026-04-23 16:46 | 36.49167 | 12.99786 | 0 ft | 285 kts | 276° |
| 2026-04-23 16:46 | 36.49401 | 12.97405 | 0 ft | 282 kts | 276° |
| 2026-04-23 16:46 | 36.49649 | 12.95019 | 0 ft | 280 kts | 277° |
| 2026-04-23 16:47 | 36.49909 | 12.92642 | 0 ft | 278 kts | 277° |
| 2026-04-23 16:47 | 36.50174 | 12.90284 | 0 ft | 279 kts | 277° |
| 2026-04-23 16:47 | 36.50440 | 12.87967 | 0 ft | 277 kts | 277° |
| 2026-04-23 16:47 | 36.50713 | 12.85637 | 0 ft | 278 kts | 277° |
| 2026-04-23 16:48 | 36.50993 | 12.83269 | 0 ft | 277 kts | 277° |
| 2026-04-23 16:48 | 36.51268 | 12.80940 | 0 ft | 280 kts | 277° |
| 2026-04-23 16:48 | 36.51547 | 12.78592 | 0 ft | 280 kts | 278° |
| 2026-04-23 16:48 | 36.51826 | 12.76233 | 0 ft | 284 kts | 278° |
| 2026-04-23 16:49 | 36.52106 | 12.73883 | 0 ft | 288 kts | 278° |
| 2026-04-23 16:49 | 36.52395 | 12.71461 | 0 ft | 290 kts | 278° |
| 2026-04-23 16:49 | 36.52681 | 12.69060 | 0 ft | 294 kts | 278° |
| 2026-04-23 16:49 | 36.52977 | 12.66579 | 0 ft | 293 kts | 278° |
| 2026-04-23 16:50 | 36.53270 | 12.64113 | 0 ft | 293 kts | 278° |
| 2026-04-23 16:50 | 36.53544 | 12.61797 | 0 ft | 263 kts | 277° |
| 2026-04-23 16:50 | 36.53788 | 12.59758 | 0 ft | 237 kts | 277° |
| 2026-04-23 16:50 | 36.54008 | 12.57903 | 0 ft | 216 kts | 277° |
| 2026-04-23 16:51 | 36.54219 | 12.56114 | 0 ft | 215 kts | 277° |
| 2026-04-23 16:51 | 36.54430 | 12.54315 | 0 ft | 215 kts | 277° |
| 2026-04-23 16:51 | 36.54641 | 12.52505 | 0 ft | 214 kts | 277° |
| 2026-04-23 16:51 | 36.54849 | 12.50723 | 0 ft | 215 kts | 277° |
| 2026-04-23 16:52 | 36.55056 | 12.48947 | 0 ft | 214 kts | 277° |
| 2026-04-23 16:52 | 36.55270 | 12.47111 | 0 ft | 214 kts | 277° |
| 2026-04-23 16:52 | 36.55485 | 12.45271 | 0 ft | 215 kts | 277° |
| 2026-04-23 16:52 | 36.55694 | 12.43489 | 0 ft | 215 kts | 277° |
| 2026-04-23 16:53 | 36.55903 | 12.41685 | 0 ft | 215 kts | 277° |
| 2026-04-23 16:53 | 36.56109 | 12.39922 | 0 ft | 214 kts | 277° |
| 2026-04-23 16:53 | 36.56314 | 12.38157 | 0 ft | 214 kts | 277° |
| 2026-04-23 16:53 | 36.56529 | 12.36313 | 0 ft | 214 kts | 277° |
| 2026-04-23 16:54 | 36.56736 | 12.34531 | 0 ft | 214 kts | 277° |
| 2026-04-23 16:54 | 36.56955 | 12.32649 | 0 ft | 240 kts | 277° |
| 2026-04-23 16:54 | 36.57201 | 12.30499 | 0 ft | 251 kts | 277° |
| 2026-04-23 16:54 | 36.57441 | 12.28410 | 0 ft | 249 kts | 277° |
| 2026-04-23 16:55 | 36.57667 | 12.26463 | 0 ft | 249 kts | 277° |
| 2026-04-23 16:55 | 36.57899 | 12.24454 | 0 ft | 248 kts | 277° |
| 2026-04-23 16:55 | 36.58123 | 12.22519 | 0 ft | 248 kts | 277° |
| 2026-04-23 16:55 | 36.58345 | 12.20595 | 0 ft | 249 kts | 277° |
| 2026-04-23 16:56 | 36.58552 | 12.18784 | 0 ft | 249 kts | 277° |
| 2026-04-23 16:56 | 36.58765 | 12.16929 | 0 ft | 248 kts | 277° |
| 2026-04-23 16:56 | 36.58991 | 12.14959 | 0 ft | 249 kts | 277° |
| 2026-04-23 16:56 | 36.59212 | 12.13022 | 0 ft | 248 kts | 277° |
| 2026-04-23 16:57 | 36.59428 | 12.11137 | 0 ft | 247 kts | 278° |
| 2026-04-23 16:57 | 36.59917 | 12.09328 | 0 ft | 251 kts | 305° |
| 2026-04-23 16:57 | 36.61159 | 12.07901 | 0 ft | 259 kts | 320° |
| 2026-04-23 16:57 | 36.62584 | 12.06725 | 0 ft | 258 kts | 324° |
| 2026-04-23 16:58 | 36.64090 | 12.05646 | 0 ft | 259 kts | 327° |
| 2026-04-23 16:58 | 36.65681 | 12.04622 | 0 ft | 259 kts | 329° |
| 2026-04-23 16:58 | 36.67298 | 12.03659 | 0 ft | 257 kts | 330° |
| 2026-04-23 16:58 | 36.68919 | 12.02741 | 0 ft | 255 kts | 331° |
| 2026-04-23 16:59 | 36.70409 | 12.01921 | 0 ft | 254 kts | 332° |
| 2026-04-23 16:59 | 36.71896 | 12.01114 | 0 ft | 252 kts | 332° |
| 2026-04-23 16:59 | 36.73339 | 12.00339 | 0 ft | 250 kts | 332° |
| 2026-04-23 16:59 | 36.74872 | 11.99515 | 0 ft | 250 kts | 332° |
| 2026-04-23 17:00 | 36.76404 | 11.98689 | 0 ft | 248 kts | 332° |
| 2026-04-23 17:00 | 36.77946 | 11.97856 | 0 ft | 247 kts | 332° |
| 2026-04-23 17:00 | 36.79526 | 11.97153 | 0 ft | 252 kts | 350° |
| 2026-04-23 17:00 | 36.81206 | 11.97570 | 0 ft | 268 kts | 27° |
| 2026-04-23 17:01 | 36.82522 | 11.99202 | 0 ft | 279 kts | 52° |
| 2026-04-23 17:01 | 36.83596 | 12.01166 | 0 ft | 276 kts | 54° |
| 2026-04-23 17:01 | 36.84614 | 12.03142 | 0 ft | 277 kts | 55° |
| 2026-04-23 17:01 | 36.85613 | 12.05162 | 0 ft | 277 kts | 56° |
| 2026-04-23 17:02 | 36.86253 | 12.06493 | 0 ft | 268 kts | 56° |
| 2026-04-23 17:02 | 36.87435 | 12.09007 | 0 ft | 241 kts | 57° |
| 2026-04-23 17:02 | 36.88233 | 12.10716 | 0 ft | 234 kts | 56° |
| 2026-04-23 17:02 | 36.89041 | 12.12427 | 0 ft | 233 kts | 57° |
| 2026-04-23 17:03 | 36.89555 | 12.14227 | 0 ft | 237 kts | 92° |
| 2026-04-23 17:03 | 36.89146 | 12.16063 | 0 ft | 235 kts | 133° |
| 2026-04-23 17:03 | 36.87980 | 12.17177 | 0 ft | 221 kts | 173° |
| 2026-04-23 17:03 | 36.86602 | 12.17198 | 0 ft | 204 kts | 212° |
| 2026-04-23 17:04 | 36.85692 | 12.16181 | 0 ft | 193 kts | 250° |
| 2026-04-23 17:04 | 36.85262 | 12.14793 | 0 ft | 184 kts | 252° |
| 2026-04-23 17:04 | 36.84890 | 12.13398 | 0 ft | 185 kts | 256° |
| 2026-04-23 17:04 | 36.84567 | 12.11887 | 0 ft | 183 kts | 258° |
| 2026-04-23 17:05 | 36.84332 | 12.10673 | 0 ft | 180 kts | 259° |
| 2026-04-23 17:05 | 36.84076 | 12.09314 | 0 ft | 181 kts | 258° |
| 2026-04-23 17:05 | 36.83841 | 12.08088 | 0 ft | 173 kts | 258° |
| 2026-04-23 17:05 | 36.83625 | 12.06997 | 0 ft | 157 kts | 258° |
| 2026-04-23 17:06 | 36.83407 | 12.05893 | 0 ft | 157 kts | 258° |
| 2026-04-23 17:06 | 36.83185 | 12.04761 | 0 ft | 132 kts | 258° |
| 2026-04-23 17:06 | 36.83006 | 12.03845 | 0 ft | 124 kts | 259° |
| 2026-04-23 17:06 | 36.82830 | 12.02928 | 0 ft | 125 kts | 258° |
| 2026-04-23 17:07 | 36.82644 | 12.01978 | 0 ft | 124 kts | 258° |
| 2026-04-23 17:07 | 36.82465 | 12.01073 | 0 ft | 125 kts | 259° |
| 2026-04-23 17:07 | 36.82278 | 12.00128 | 0 ft | 125 kts | 259° |
| 2026-04-23 17:07 | 36.82098 | 11.99165 | 0 ft | 113 kts | 258° |
| 2026-04-23 17:08 | 36.81941 | 11.98322 | 0 ft | 95 kts | 257° |
| 2026-04-23 17:08 | 36.81861 | 11.97910 | 0 ft | 2 kts | 263° |
| 2026-04-23 17:08 | 36.81862 | 11.97920 | 0 ft | 0 kts | 263° |
| 2026-04-23 17:08 | 36.81723 | 11.96453 | 0 ft | 163 kts | 263° |
| 2026-04-23 17:09 | 36.81704 | 11.96238 | 0 ft | 0 kts | 266° |
| 2026-04-23 17:09 | 36.81704 | 11.96237 | 0 ft | 0 kts | 266° |